sensor_id;sensor_type;location;lat;lon;timestamp;P1;durP1;ratioP1;P2;durP2;ratioP2
7887;SDS011;3989;48.810;9.208;2024-02-26T16:40:25;2.60;;;2.10;;
7887;SDS011;3989;48.810;9.208;2024-02-26T16:42:54;1.80;;;1.70;;
7887;SDS011;3989;48.810;9.208;2024-02-26T16:45:21;1.90;;;1.80;;
7887;SDS011;3989;48.810;9.208;2024-02-26T17:29:33;2.07;;;1.87;;
7887;SDS011;3989;48.810;9.208;2024-02-26T17:32:08;2.03;;;1.83;;
7887;SDS011;3989;48.810;9.208;2024-02-26T17:34:35;1.67;;;1.57;;
7887;SDS011;3989;48.810;9.208;2024-02-26T17:37:06;3.53;;;2.00;;
7887;SDS011;3989;48.810;9.208;2024-02-26T17:39:32;1.90;;;1.80;;
7887;SDS011;3989;48.810;9.208;2024-02-26T17:41:59;2.50;;;2.33;;
7887;SDS011;3989;48.810;9.208;2024-02-26T17:47:10;2.60;;;1.77;;
7887;SDS011;3989;48.810;9.208;2024-02-26T17:49:38;2.07;;;1.80;;
7887;SDS011;3989;48.810;9.208;2024-02-26T18:14:10;4.00;;;2.47;;
7887;SDS011;3989;48.810;9.208;2024-02-26T18:16:38;3.10;;;2.30;;
7887;SDS011;3989;48.810;9.208;2024-02-26T18:19:05;3.50;;;2.30;;
7887;SDS011;3989;48.810;9.208;2024-02-26T18:21:32;3.93;;;2.40;;
7887;SDS011;3989;48.810;9.208;2024-02-26T18:24:00;2.57;;;2.43;;
7887;SDS011;3989;48.810;9.208;2024-02-26T18:26:27;481.50;;;431.80;;
7887;SDS011;3989;48.810;9.208;2024-02-26T18:29:00;3.03;;;2.77;;
7887;SDS011;3989;48.810;9.208;2024-02-26T18:31:30;3.10;;;2.70;;
7887;SDS011;3989;48.810;9.208;2024-02-26T18:34:04;2.63;;;2.47;;
7887;SDS011;3989;48.810;9.208;2024-02-26T18:36:34;3.63;;;3.13;;
7887;SDS011;3989;48.810;9.208;2024-02-26T18:39:13;2.80;;;2.60;;
7887;SDS011;3989;48.810;9.208;2024-02-26T18:41:52;2.80;;;2.60;;
7887;SDS011;3989;48.810;9.208;2024-02-26T18:44:23;4.40;;;3.20;;
7887;SDS011;3989;48.810;9.208;2024-02-26T18:50:57;2.90;;;2.70;;
7887;SDS011;3989;48.810;9.208;2024-02-26T18:53:50;3.80;;;2.70;;
7887;SDS011;3989;48.810;9.208;2024-02-26T18:56:45;3.17;;;2.80;;
7887;SDS011;3989;48.810;9.208;2024-02-26T18:59:12;2.90;;;2.60;;
7887;SDS011;3989;48.810;9.208;2024-02-26T19:01:40;2.80;;;2.67;;
7887;SDS011;3989;48.810;9.208;2024-02-26T19:04:07;2.73;;;2.63;;
7887;SDS011;3989;48.810;9.208;2024-02-26T19:06:36;6.37;;;3.03;;
7887;SDS011;3989;48.810;9.208;2024-02-26T19:09:04;5.27;;;3.00;;
7887;SDS011;3989;48.810;9.208;2024-02-26T20:39:56;3.47;;;3.20;;
7887;SDS011;3989;48.810;9.208;2024-02-26T20:42:57;7.03;;;3.43;;
7887;SDS011;3989;48.810;9.208;2024-02-26T20:45:46;4.37;;;4.00;;
7887;SDS011;3989;48.810;9.208;2024-02-26T20:51:40;4.57;;;4.17;;
7887;SDS011;3989;48.810;9.208;2024-02-26T20:54:14;4.30;;;3.90;;
7887;SDS011;3989;48.810;9.208;2024-02-26T20:56:55;4.40;;;3.80;;
7887;SDS011;3989;48.810;9.208;2024-02-26T20:59:27;3.60;;;3.30;;
7887;SDS011;3989;48.810;9.208;2024-02-26T21:02:04;4.17;;;3.47;;
7887;SDS011;3989;48.810;9.208;2024-02-26T21:04:37;3.73;;;3.27;;
7887;SDS011;3989;48.810;9.208;2024-02-26T21:07:09;3.50;;;3.20;;
7887;SDS011;3989;48.810;9.208;2024-02-26T21:09:50;4.37;;;3.60;;
7887;SDS011;3989;48.810;9.208;2024-02-26T21:15:43;3.37;;;3.17;;
7887;SDS011;3989;48.810;9.208;2024-02-26T21:18:11;3.30;;;3.10;;
7887;SDS011;3989;48.810;9.208;2024-02-26T21:20:38;3.43;;;3.10;;
7887;SDS011;3989;48.810;9.208;2024-02-26T21:23:05;3.73;;;3.33;;
7887;SDS011;3989;48.810;9.208;2024-02-26T21:25:33;3.70;;;3.40;;
7887;SDS011;3989;48.810;9.208;2024-02-26T21:28:02;3.70;;;3.33;;
7887;SDS011;3989;48.810;9.208;2024-02-26T21:30:30;3.00;;;2.80;;
7887;SDS011;3989;48.810;9.208;2024-02-26T21:32:58;4.10;;;3.10;;
7887;SDS011;3989;48.810;9.208;2024-02-26T21:35:28;4.53;;;2.60;;
7887;SDS011;3989;48.810;9.208;2024-02-26T21:38:09;4.77;;;3.03;;
7887;SDS011;3989;48.810;9.208;2024-02-26T21:40:36;3.07;;;2.80;;
7887;SDS011;3989;48.810;9.208;2024-02-26T21:45:40;2.37;;;2.20;;
7887;SDS011;3989;48.810;9.208;2024-02-26T21:48:07;2.67;;;2.50;;
7887;SDS011;3989;48.810;9.208;2024-02-26T21:50:35;2.60;;;2.40;;
7887;SDS011;3989;48.810;9.208;2024-02-26T21:53:02;2.70;;;2.50;;
7887;SDS011;3989;48.810;9.208;2024-02-26T21:55:29;2.50;;;2.30;;
7887;SDS011;3989;48.810;9.208;2024-02-26T22:00:32;2.30;;;2.10;;
7887;SDS011;3989;48.810;9.208;2024-02-26T22:03:57;228.77;;;177.60;;
7887;SDS011;3989;48.810;9.208;2024-02-26T22:06:25;463.73;;;236.87;;
7887;SDS011;3989;48.810;9.208;2024-02-26T22:08:52;480.33;;;223.00;;
7887;SDS011;3989;48.810;9.208;2024-02-26T22:11:19;468.43;;;208.70;;
7887;SDS011;3989;48.810;9.208;2024-02-26T22:13:48;477.33;;;228.90;;
7887;SDS011;3989;48.810;9.208;2024-02-26T22:16:15;472.67;;;220.40;;
7887;SDS011;3989;48.810;9.208;2024-02-26T22:18:41;478.80;;;218.63;;
7887;SDS011;3989;48.810;9.208;2024-02-26T22:21:11;471.23;;;207.70;;
7887;SDS011;3989;48.810;9.208;2024-02-26T22:23:38;476.97;;;229.67;;
7887;SDS011;3989;48.810;9.208;2024-02-26T22:26:05;476.50;;;208.93;;
7887;SDS011;3989;48.810;9.208;2024-02-26T22:28:32;467.17;;;203.53;;
7887;SDS011;3989;48.810;9.208;2024-02-26T22:30:59;470.10;;;209.30;;
7887;SDS011;3989;48.810;9.208;2024-02-26T22:33:26;472.70;;;216.10;;
7887;SDS011;3989;48.810;9.208;2024-02-26T22:35:53;471.43;;;206.70;;
7887;SDS011;3989;48.810;9.208;2024-02-26T22:38:21;468.13;;;212.07;;
7887;SDS011;3989;48.810;9.208;2024-02-26T22:40:48;469.23;;;206.93;;
7887;SDS011;3989;48.810;9.208;2024-02-26T22:43:16;472.97;;;207.50;;
7887;SDS011;3989;48.810;9.208;2024-02-26T22:45:43;469.83;;;202.17;;
7887;SDS011;3989;48.810;9.208;2024-02-26T22:48:11;467.67;;;204.17;;
7887;SDS011;3989;48.810;9.208;2024-02-26T22:50:38;476.43;;;209.07;;
7887;SDS011;3989;48.810;9.208;2024-02-26T22:53:05;467.43;;;198.07;;
7887;SDS011;3989;48.810;9.208;2024-02-26T22:55:34;471.07;;;205.97;;
7887;SDS011;3989;48.810;9.208;2024-02-26T22:58:01;467.37;;;200.57;;
7887;SDS011;3989;48.810;9.208;2024-02-26T23:00:28;467.37;;;197.80;;
7887;SDS011;3989;48.810;9.208;2024-02-26T23:03:01;466.13;;;195.83;;
7887;SDS011;3989;48.810;9.208;2024-02-26T23:05:29;470.13;;;200.50;;
7887;SDS011;3989;48.810;9.208;2024-02-26T23:07:57;469.30;;;200.10;;
7887;SDS011;3989;48.810;9.208;2024-02-26T23:10:26;468.27;;;203.50;;
7887;SDS011;3989;48.810;9.208;2024-02-26T23:12:55;466.73;;;200.10;;
7887;SDS011;3989;48.810;9.208;2024-02-26T23:15:22;476.33;;;211.73;;
7887;SDS011;3989;48.810;9.208;2024-02-26T23:17:51;470.53;;;205.80;;
7887;SDS011;3989;48.810;9.208;2024-02-26T23:20:28;468.37;;;193.77;;
7887;SDS011;3989;48.810;9.208;2024-02-26T23:22:55;481.37;;;206.60;;
7887;SDS011;3989;48.810;9.208;2024-02-26T23:25:25;480.33;;;203.03;;
7887;SDS011;3989;48.810;9.208;2024-02-26T23:27:55;463.60;;;196.43;;
7887;SDS011;3989;48.810;9.208;2024-02-26T23:30:21;464.07;;;203.83;;
7887;SDS011;3989;48.810;9.208;2024-02-26T23:32:48;464.47;;;198.47;;
7887;SDS011;3989;48.810;9.208;2024-02-26T23:35:14;464.63;;;202.80;;
7887;SDS011;3989;48.810;9.208;2024-02-26T23:37:41;481.70;;;213.40;;
7887;SDS011;3989;48.810;9.208;2024-02-26T23:40:09;459.73;;;190.80;;
7887;SDS011;3989;48.810;9.208;2024-02-26T23:42:37;468.90;;;202.73;;
7887;SDS011;3989;48.810;9.208;2024-02-26T23:45:06;461.17;;;192.30;;
7887;SDS011;3989;48.810;9.208;2024-02-26T23:47:33;468.17;;;194.63;;
7887;SDS011;3989;48.810;9.208;2024-02-26T23:50:00;464.27;;;188.67;;
7887;SDS011;3989;48.810;9.208;2024-02-26T23:52:27;471.43;;;200.93;;
7887;SDS011;3989;48.810;9.208;2024-02-26T23:54:54;466.93;;;194.83;;
7887;SDS011;3989;48.810;9.208;2024-02-26T23:57:21;467.57;;;198.60;;
7887;SDS011;3989;48.810;9.208;2024-02-26T23:59:48;463.67;;;192.17;;
